createdAt,value
2018-02-06T00:00:44.674Z,11.20
2018-02-06T00:03:10.952Z,11.90
2018-02-06T00:05:37.172Z,11.00
2018-02-06T00:08:03.422Z,12.65
2018-02-06T00:10:30.379Z,11.38
2018-02-06T00:12:56.758Z,11.48
2018-02-06T00:15:22.976Z,9.98
2018-02-06T00:17:49.303Z,13.00
2018-02-06T00:20:18.326Z,10.20
2018-02-06T00:22:49.589Z,11.50
2018-02-06T00:25:15.821Z,11.25
2018-02-06T00:27:44.487Z,10.27
2018-02-06T00:30:10.901Z,11.82
2018-02-06T00:32:37.169Z,10.18
2018-02-06T00:35:04.161Z,11.27
2018-02-06T00:37:30.422Z,8.95
2018-02-06T00:39:56.824Z,10.80
2018-02-06T00:42:23.834Z,10.30
2018-02-06T00:44:50.194Z,10.13
2018-02-06T00:47:16.408Z,9.55
2018-02-06T00:49:42.652Z,10.93
2018-02-06T00:52:08.876Z,10.18
2018-02-06T00:54:35.274Z,10.23
2018-02-06T00:57:02.277Z,9.55
2018-02-06T00:59:28.556Z,11.27
2018-02-06T01:01:54.791Z,11.98
2018-02-06T01:04:21.045Z,10.20
2018-02-06T01:06:47.279Z,12.13
2018-02-06T01:09:13.533Z,9.20
2018-02-06T01:11:39.808Z,10.55
2018-02-06T01:14:06.073Z,11.05
2018-02-06T01:16:32.288Z,10.77
2018-02-06T01:18:59.313Z,9.48
2018-02-06T01:21:26.330Z,9.60
2018-02-06T01:23:52.580Z,10.20
2018-02-06T01:26:18.822Z,9.93
2018-02-06T01:28:45.157Z,9.38
2018-02-06T01:31:11.393Z,11.02
2018-02-06T01:33:37.663Z,10.55
2018-02-06T01:36:07.820Z,10.75
2018-02-06T01:38:34.848Z,10.38
2018-02-06T01:41:01.115Z,10.30
2018-02-06T01:43:27.320Z,10.93
2018-02-06T01:45:53.616Z,9.18
2018-02-06T01:48:20.623Z,9.85
2018-02-06T01:50:46.904Z,9.65
2018-02-06T01:53:14.194Z,11.63
2018-02-06T01:55:40.508Z,9.93
2018-02-06T01:58:07.577Z,12.23
2018-02-06T02:00:34.886Z,11.30
2018-02-06T02:03:01.300Z,12.30
2018-02-06T02:05:27.845Z,13.02
2018-02-06T02:07:54.264Z,10.30
2018-02-06T02:10:21.127Z,11.38
2018-02-06T02:12:48.135Z,12.05
2018-02-06T02:15:15.500Z,12.40
2018-02-06T02:17:41.752Z,11.50
2018-02-06T02:20:08.005Z,10.07
2018-02-06T02:22:35.017Z,11.82
2018-02-06T02:25:01.395Z,11.32
2018-02-06T02:27:27.693Z,12.32
2018-02-06T02:29:57.064Z,11.45
2018-02-06T02:32:23.310Z,12.25
2018-02-06T02:34:49.533Z,12.25
2018-02-06T02:37:15.785Z,11.30
2018-02-06T02:39:42.025Z,12.85
2018-02-06T04:39:21.993Z,15.48
2018-02-06T04:41:48.218Z,14.98
2018-02-06T04:44:14.452Z,14.98
2018-02-06T04:46:40.683Z,15.05
2018-02-06T04:49:06.972Z,17.00
2018-02-06T04:51:33.228Z,16.17
2018-02-06T04:54:02.434Z,15.77
2018-02-06T04:56:28.672Z,14.82
2018-02-06T04:58:55.657Z,16.42
2018-02-06T05:01:21.921Z,15.73
2018-02-06T05:03:48.184Z,16.70
2018-02-06T05:06:14.445Z,13.15
2018-02-06T05:08:40.710Z,17.77
2018-02-06T05:11:07.006Z,13.80
2018-02-06T05:13:34.169Z,16.67
2018-02-06T05:16:00.452Z,13.85
2018-02-06T05:18:27.499Z,15.00
2018-02-06T05:20:53.741Z,14.35
2018-02-06T05:23:20.086Z,13.70
2018-02-06T05:25:46.325Z,14.90
2018-02-06T05:28:12.550Z,15.60
2018-02-06T05:30:38.836Z,14.32
2018-02-06T05:33:05.185Z,14.48
2018-02-06T05:35:31.452Z,15.10
2018-02-06T05:37:57.816Z,14.15
2018-02-06T05:40:26.509Z,15.35
2018-02-06T05:42:52.784Z,13.77
2018-02-06T05:45:19.016Z,14.70
2018-02-06T05:47:45.338Z,14.98
2018-02-06T05:50:18.068Z,14.80
2018-02-06T05:52:45.802Z,13.85
2018-02-06T05:55:12.084Z,16.95
2018-02-06T05:57:38.525Z,14.98
2018-02-06T06:00:04.797Z,15.13
2018-02-06T06:02:31.077Z,16.20
2018-02-06T06:04:57.320Z,13.27
2018-02-06T06:07:23.597Z,15.70
2018-02-06T06:09:49.832Z,15.05
2018-02-06T06:12:16.125Z,15.25
2018-02-06T06:14:43.135Z,13.57
2018-02-06T06:17:09.389Z,15.57
2018-02-06T06:19:36.406Z,14.90
2018-02-06T06:22:03.421Z,15.38
2018-02-06T06:24:30.452Z,14.68
2018-02-06T06:26:56.743Z,15.63
2018-02-06T06:29:22.980Z,14.50
2018-02-06T06:31:49.285Z,16.98
2018-02-06T06:34:15.536Z,13.75
2018-02-06T06:36:42.553Z,14.38
2018-02-06T06:39:08.781Z,14.70
2018-02-06T06:41:36.293Z,16.33
2018-02-06T06:44:02.539Z,17.60
2018-02-06T06:46:28.801Z,14.90
2018-02-06T06:48:55.209Z,16.45
2018-02-06T06:51:21.520Z,15.80
2018-02-06T06:53:47.848Z,16.65
2018-02-06T06:56:14.078Z,16.27
2018-02-06T06:58:41.161Z,14.38
2018-02-06T07:01:07.396Z,15.38
2018-02-06T07:03:34.356Z,15.32
2018-02-06T07:06:00.605Z,16.45
2018-02-06T07:08:26.857Z,19.98
2018-02-06T07:10:57.314Z,16.90
2018-02-06T07:13:23.528Z,15.45
2018-02-06T07:15:49.801Z,15.10
2018-02-06T07:18:16.044Z,17.92
2018-02-06T07:20:42.285Z,16.77
2018-02-06T07:23:08.530Z,17.15
2018-02-06T07:25:34.764Z,16.23
2018-02-06T07:28:01.012Z,14.13
2018-02-06T07:30:29.721Z,16.85
2018-02-06T07:32:55.977Z,15.05
2018-02-06T07:35:22.208Z,14.87
2018-02-06T07:37:48.454Z,14.77
2018-02-06T07:40:14.688Z,16.17
2018-02-06T07:42:40.996Z,14.60
2018-02-06T07:45:07.265Z,15.93
2018-02-06T07:47:35.820Z,18.37
2018-02-06T07:50:02.074Z,15.25
2018-02-06T07:52:28.338Z,17.30
2018-02-06T07:54:54.560Z,15.55
2018-02-06T07:57:20.785Z,14.75
2018-02-06T07:59:47.011Z,15.65
2018-02-06T08:02:13.400Z,16.50
2018-02-06T08:04:40.356Z,17.65
2018-02-06T08:07:10.425Z,16.35
2018-02-06T08:09:36.677Z,15.23
2018-02-06T08:12:02.954Z,17.30
2018-02-06T08:14:29.197Z,15.10
2018-02-06T08:16:55.564Z,17.00
2018-02-06T08:19:21.848Z,16.10
2018-02-06T08:21:48.103Z,18.67
2018-02-06T08:24:17.891Z,15.98
2018-02-06T08:26:45.281Z,16.00
2018-02-06T08:29:12.282Z,16.00
2018-02-06T08:31:38.617Z,16.67
2018-02-06T08:34:04.873Z,16.20
2018-02-06T08:36:31.118Z,18.08
2018-02-06T08:39:03.957Z,17.50
2018-02-06T08:41:30.547Z,18.58
2018-02-06T08:43:56.784Z,15.02
2018-02-06T08:46:23.008Z,18.98
2018-02-06T08:48:49.281Z,15.05
2018-02-06T08:51:15.533Z,16.80
2018-02-06T08:53:41.792Z,16.75
2018-02-06T08:56:08.046Z,15.98
2018-02-06T08:58:38.220Z,17.40
2018-02-06T09:01:04.461Z,15.20
2018-02-06T09:03:30.717Z,17.08
2018-02-06T09:05:56.972Z,16.02
2018-02-06T09:08:23.205Z,17.40
2018-02-06T09:10:49.448Z,15.68
2018-02-06T09:13:16.433Z,17.30
2018-02-06T09:15:43.657Z,16.37
2018-02-06T09:18:11.813Z,16.62
2018-02-06T09:20:38.242Z,15.85
2018-02-06T09:23:04.496Z,15.98
2018-02-06T09:25:30.721Z,16.10
2018-02-06T09:27:57.193Z,15.85
2018-02-06T09:30:23.411Z,15.20
2018-02-06T09:32:49.889Z,14.77
2018-02-06T09:35:16.922Z,15.38
2018-02-06T09:37:47.267Z,13.73
2018-02-06T09:40:13.540Z,15.07
2018-02-06T09:42:40.833Z,15.48
2018-02-06T09:45:07.090Z,15.35
2018-02-06T09:47:33.344Z,13.10
2018-02-06T09:49:59.557Z,13.05
2018-02-06T09:52:25.809Z,14.60
2018-02-06T09:54:53.845Z,15.13
2018-02-06T09:57:25.244Z,14.20
2018-02-06T09:59:52.241Z,15.15
2018-02-06T10:02:18.505Z,15.63
2018-02-06T10:04:45.794Z,15.90
2018-02-06T10:07:12.037Z,15.20
2018-02-06T10:09:42.552Z,15.23
2018-02-06T10:12:09.739Z,16.15
2018-02-06T10:14:36.002Z,16.00
2018-02-06T10:17:02.233Z,15.30
2018-02-06T10:19:28.472Z,14.65
2018-02-06T10:21:54.922Z,14.00
2018-02-06T10:24:22.193Z,14.48
2018-02-06T10:26:48.544Z,15.10
2018-02-06T10:29:16.466Z,16.25
2018-02-06T10:31:42.734Z,13.98
2018-02-06T10:34:08.958Z,16.00
2018-02-06T10:36:35.264Z,13.93
2018-02-06T10:39:02.286Z,17.25
2018-02-06T10:41:28.538Z,15.40
2018-02-06T10:43:54.737Z,14.87
2018-02-06T10:46:21.697Z,17.25
2018-02-06T10:48:48.197Z,15.45
2018-02-06T10:51:14.894Z,14.98
2018-02-06T10:53:41.852Z,18.42
2018-02-06T10:56:08.892Z,14.87
2018-02-06T10:58:35.949Z,16.80
2018-02-06T11:01:02.180Z,15.50
2018-02-06T11:03:28.502Z,16.55
2018-02-06T11:05:59.949Z,16.95
2018-02-06T11:08:26.325Z,16.35
2018-02-06T11:10:52.561Z,14.45
2018-02-06T11:13:18.790Z,14.75
2018-02-06T11:15:45.156Z,17.45
2018-02-06T11:18:12.228Z,14.35
2018-02-06T11:20:38.343Z,15.57
2018-02-06T11:23:04.440Z,17.50
2018-02-06T11:25:32.157Z,15.73
2018-02-06T11:27:58.208Z,15.95
2018-02-06T11:30:24.267Z,16.85
2018-02-06T11:32:50.422Z,15.45
2018-02-06T11:35:16.448Z,17.90
2018-02-06T11:37:42.529Z,15.80
2018-02-06T11:40:09.350Z,14.18
2018-02-06T11:42:35.376Z,15.23
2018-02-06T11:45:04.185Z,25.90
2018-02-06T11:47:30.316Z,15.50
2018-02-06T11:49:57.165Z,16.48
2018-02-06T11:52:23.209Z,15.73
2018-02-06T11:54:49.268Z,16.98
2018-02-06T11:57:15.384Z,17.52
2018-02-06T11:59:41.421Z,16.77
2018-02-06T12:02:07.468Z,16.77
2018-02-06T12:04:38.065Z,16.75
2018-02-06T12:07:04.132Z,15.90
2018-02-06T12:09:30.172Z,17.05
2018-02-06T12:11:56.208Z,17.58
2018-02-06T12:14:22.980Z,16.62
2018-02-06T12:16:49.024Z,15.63
2018-02-06T12:19:15.064Z,16.23
2018-02-06T12:21:44.996Z,17.55
2018-02-06T12:24:11.044Z,15.70
2018-02-06T12:26:37.110Z,16.25
2018-02-06T12:29:03.164Z,16.70
2018-02-06T12:31:30.050Z,17.60
2018-02-06T12:33:56.441Z,17.20
2018-02-06T12:36:22.536Z,16.10
2018-02-06T12:38:48.608Z,17.48
2018-02-06T12:41:19.564Z,16.90
2018-02-06T12:43:45.626Z,18.05
2018-02-06T12:46:11.676Z,16.75
2018-02-06T12:48:37.728Z,17.48
2018-02-06T12:51:03.782Z,19.27
2018-02-06T12:53:30.571Z,17.35
2018-02-06T12:55:56.613Z,15.82
2018-02-06T12:58:22.868Z,16.05
2018-02-06T13:00:51.464Z,17.10
2018-02-06T13:03:17.545Z,17.25
2018-02-06T13:05:43.637Z,16.60
2018-02-06T13:08:09.702Z,16.40
2018-02-06T13:10:35.748Z,17.83
2018-02-06T13:13:01.832Z,19.25
2018-02-06T13:15:28.628Z,17.98
2018-02-06T13:17:58.336Z,15.80
2018-02-06T13:20:24.378Z,18.60
2018-02-06T13:22:50.498Z,19.58
2018-02-06T13:25:16.560Z,17.85
2018-02-06T13:27:42.606Z,18.02
2018-02-06T13:30:08.636Z,18.33
2018-02-06T13:32:34.701Z,17.60
2018-02-06T13:35:00.733Z,16.40
2018-02-06T13:37:26.800Z,15.95
2018-02-06T13:39:52.841Z,17.33
2018-02-06T13:42:21.628Z,18.87
2018-02-06T13:44:47.648Z,17.35
2018-02-06T13:47:13.674Z,16.92
2018-02-06T13:49:39.694Z,16.27
2018-02-06T13:52:05.756Z,16.73
2018-02-06T13:54:31.812Z,16.52
2018-02-06T13:56:57.845Z,17.00
2018-02-06T13:59:24.044Z,15.38
2018-02-06T14:01:52.124Z,15.38
2018-02-06T14:04:18.160Z,15.80
2018-02-06T14:06:44.173Z,16.77
2018-02-06T14:09:10.196Z,15.77
2018-02-06T14:11:36.221Z,16.77
2018-02-06T14:14:02.276Z,15.57
2018-02-06T14:16:28.309Z,16.62
2018-02-06T14:18:54.377Z,15.25
2018-02-06T14:21:20.388Z,17.17
2018-02-06T14:23:46.424Z,16.27
2018-02-06T14:26:14.016Z,15.30
2018-02-06T14:28:40.033Z,16.50
2018-02-06T14:31:06.082Z,14.60
2018-02-06T14:33:32.926Z,16.40
2018-02-06T14:35:58.940Z,16.70
2018-02-06T14:38:24.992Z,15.60
2018-02-06T14:40:51.021Z,15.57
2018-02-06T14:43:20.815Z,16.48
2018-02-06T14:45:46.888Z,13.77
2018-02-06T14:48:12.909Z,15.73
2018-02-06T14:50:38.973Z,15.15
2018-02-06T14:53:05.088Z,14.63
2018-02-06T14:55:31.105Z,16.67
2018-02-06T14:57:57.944Z,15.00
2018-02-06T15:00:23.972Z,15.45
2018-02-06T15:02:53.469Z,16.02
2018-02-06T15:05:19.497Z,16.23
2018-02-06T15:07:46.336Z,17.00
2018-02-06T15:10:12.364Z,17.10
2018-02-06T15:12:38.392Z,16.70
2018-02-06T15:15:05.204Z,17.45
2018-02-06T15:17:31.216Z,15.68
2018-02-06T15:19:57.249Z,18.00
2018-02-06T15:22:30.101Z,15.25
2018-02-06T15:24:56.955Z,16.35
2018-02-06T15:27:22.978Z,15.65
2018-02-06T15:29:48.997Z,15.35
2018-02-06T15:32:15.108Z,16.00
2018-02-06T15:34:41.140Z,15.60
2018-02-06T15:37:07.186Z,17.42
2018-02-06T15:39:33.241Z,14.25
2018-02-06T15:42:04.647Z,17.73
2018-02-06T15:44:30.676Z,16.17
2018-02-06T15:46:56.712Z,16.40
2018-02-06T15:49:22.765Z,14.93
2018-02-06T15:51:48.810Z,17.05
2018-02-06T15:54:14.836Z,15.82
2018-02-06T15:56:40.886Z,15.40
2018-02-06T15:59:06.931Z,14.95
2018-02-06T16:01:36.395Z,15.00
2018-02-06T16:04:02.467Z,16.20
2018-02-06T16:06:28.484Z,15.00
2018-02-06T16:08:55.289Z,16.02
2018-02-06T16:11:21.321Z,16.37
2018-02-06T16:13:47.423Z,16.67
2018-02-06T16:16:13.540Z,16.45
2018-02-06T16:18:44.127Z,17.00
2018-02-06T16:21:10.169Z,16.77
2018-02-06T16:23:36.260Z,16.02
2018-02-06T16:26:02.341Z,17.35
2018-02-06T16:28:28.309Z,17.40
2018-02-06T16:30:55.068Z,15.88
2018-02-06T16:33:21.128Z,16.15
2018-02-06T16:35:52.827Z,16.48
2018-02-06T16:38:18.839Z,16.30
2018-02-06T16:40:45.593Z,15.98
2018-02-06T16:43:12.376Z,15.35
2018-02-06T16:45:39.231Z,17.12
2018-02-06T16:48:06.276Z,17.48
2018-02-06T16:50:33.042Z,17.02
2018-02-06T16:53:05.059Z,17.77
2018-02-06T16:55:31.113Z,18.48
2018-02-06T16:57:57.205Z,19.00
2018-02-06T17:00:23.236Z,18.20
2018-02-06T17:02:49.272Z,18.10
2018-02-06T17:05:15.293Z,18.58
2018-02-06T17:07:42.075Z,17.95
2018-02-06T17:10:12.921Z,18.15
2018-02-06T17:12:39.808Z,17.75
2018-02-06T17:15:05.856Z,18.67
2018-02-06T17:17:31.920Z,17.62
2018-02-06T17:19:57.959Z,17.98
2018-02-06T17:22:23.996Z,18.98
2018-02-06T17:24:50.818Z,17.58
2018-02-06T17:27:20.830Z,19.23
2018-02-06T17:29:46.864Z,19.15
2018-02-06T17:32:12.902Z,19.10
2018-02-06T17:34:39.035Z,18.48
2018-02-06T17:37:05.041Z,18.95
2018-02-06T17:39:31.113Z,18.37
2018-02-06T17:41:57.408Z,21.12
2018-02-06T17:44:23.712Z,18.20
2018-02-06T17:46:52.180Z,19.27
2018-02-06T17:49:18.465Z,18.42
2018-02-06T17:51:44.741Z,18.87
2018-02-06T17:54:11.009Z,18.10
2018-02-06T17:56:37.265Z,17.80
2018-02-06T17:59:04.263Z,16.23
2018-02-06T18:01:35.804Z,16.42
2018-02-06T18:04:02.032Z,17.02
2018-02-06T18:06:28.244Z,16.45
2018-02-06T18:08:55.237Z,16.77
2018-02-06T18:11:22.251Z,15.65
2018-02-06T18:13:48.502Z,15.85
2018-02-06T18:16:14.753Z,15.77
2018-02-06T18:18:41.080Z,16.08
2018-02-06T18:21:11.252Z,18.02
2018-02-06T18:23:38.272Z,17.55
2018-02-06T18:26:04.561Z,16.23
2018-02-06T18:28:30.941Z,15.60
2018-02-06T18:30:57.281Z,16.12
2018-02-06T18:33:24.252Z,16.58
2018-02-06T18:35:50.545Z,16.40
2018-02-06T18:38:16.893Z,16.20
2018-02-06T18:40:43.264Z,18.20
2018-02-06T18:43:10.243Z,17.37
2018-02-06T18:45:36.553Z,19.73
2018-02-06T18:48:02.944Z,16.37
2018-02-06T18:50:29.184Z,17.62
2018-02-06T18:52:55.485Z,17.42
2018-02-06T18:55:22.479Z,17.05
2018-02-06T18:57:48.724Z,20.88
2018-02-06T19:00:15.041Z,17.48
2018-02-06T19:02:42.092Z,17.42
2018-02-06T19:05:08.397Z,17.33
2018-02-06T19:07:34.621Z,19.58
2018-02-06T19:10:00.916Z,16.02
2018-02-06T19:12:27.154Z,17.15
2018-02-06T19:14:54.204Z,17.75
2018-02-06T19:17:20.526Z,16.73
2018-02-06T19:19:47.560Z,15.90
2018-02-06T19:22:13.837Z,17.70
2018-02-06T19:24:40.041Z,15.50
2018-02-06T19:27:06.519Z,17.77
2018-02-06T19:29:32.761Z,17.25
2018-02-06T19:31:58.984Z,16.02
2018-02-06T19:34:25.268Z,17.80
2018-02-06T19:36:51.717Z,17.90
2018-02-06T19:39:17.967Z,17.45
2018-02-06T19:41:44.957Z,18.40
2018-02-06T19:44:11.213Z,17.15
2018-02-06T19:46:37.441Z,17.67
2018-02-06T19:49:03.749Z,18.27
2018-02-06T19:51:31.069Z,17.25
2018-02-06T19:53:58.425Z,17.05
2018-02-06T19:56:24.720Z,17.30
2018-02-06T19:58:50.950Z,17.37
2018-02-06T20:01:21.593Z,17.83
2018-02-06T20:03:47.848Z,18.08
2018-02-06T20:06:14.204Z,17.98
2018-02-06T20:08:43.362Z,18.10
2018-02-06T20:11:10.921Z,17.20
2018-02-06T20:13:37.160Z,18.58
2018-02-06T20:16:03.460Z,17.05
2018-02-06T20:18:29.804Z,18.20
2018-02-06T20:20:56.015Z,21.08
2018-02-06T20:23:22.232Z,19.52
2018-02-06T20:25:48.503Z,17.90
2018-02-06T20:28:14.789Z,17.73
2018-02-06T20:30:41.128Z,18.60
2018-02-06T20:33:08.216Z,19.05
2018-02-06T20:35:34.523Z,18.48
2018-02-06T20:38:00.876Z,18.12
2018-02-06T20:40:27.948Z,17.65
2018-02-06T20:42:54.218Z,18.85
2018-02-06T20:45:21.224Z,18.80
2018-02-06T20:47:47.491Z,17.55
2018-02-06T20:50:13.834Z,17.10
2018-02-06T20:52:42.437Z,18.37
2018-02-06T20:55:08.698Z,18.62
2018-02-06T20:57:34.936Z,19.27
2018-02-06T21:00:02.030Z,17.92
2018-02-06T21:02:28.349Z,19.52
2018-02-06T21:04:54.645Z,23.35
2018-02-06T21:07:20.944Z,20.15
2018-02-06T21:09:48.747Z,20.05
2018-02-06T21:12:15.797Z,19.70
2018-02-06T21:14:45.230Z,18.95
2018-02-06T21:17:12.428Z,18.87
2018-02-06T21:19:39.816Z,18.42
2018-02-06T21:22:06.070Z,18.30
2018-02-06T21:24:32.303Z,19.08
2018-02-06T21:26:58.663Z,16.77
2018-02-06T21:29:24.916Z,18.92
2018-02-06T21:31:54.116Z,20.35
2018-02-06T21:34:20.601Z,18.92
2018-02-06T21:36:47.610Z,20.00
2018-02-06T21:39:13.908Z,20.42
2018-02-06T21:41:40.177Z,17.58
2018-02-06T21:44:07.162Z,19.67
2018-02-06T21:46:33.474Z,18.77
2018-02-06T21:49:00.469Z,19.17
2018-02-06T21:51:26.741Z,18.75
2018-02-06T21:53:53.036Z,18.58
2018-02-06T21:56:20.092Z,18.10
2018-02-06T21:58:47.074Z,18.15
2018-02-06T22:01:13.368Z,19.73
2018-02-06T22:03:42.648Z,18.30
2018-02-06T22:08:50.665Z,17.80
2018-02-06T22:11:16.924Z,19.02
2018-02-06T22:13:43.184Z,18.62
2018-02-06T22:16:09.473Z,19.60
2018-02-06T22:18:35.801Z,18.85
2018-02-06T22:21:02.364Z,18.55
2018-02-06T22:23:29.943Z,19.90
2018-02-06T22:25:56.952Z,19.25
2018-02-06T22:28:23.584Z,18.02
2018-02-06T22:30:49.807Z,18.85
2018-02-06T22:33:16.050Z,16.75
2018-02-06T22:35:43.027Z,17.77
2018-02-06T22:38:09.318Z,17.62
2018-02-06T22:40:37.284Z,18.27
2018-02-06T22:43:03.645Z,19.20
2018-02-06T22:45:29.944Z,18.55
2018-02-06T22:47:56.172Z,18.33
2018-02-06T22:50:22.389Z,21.00
2018-02-06T22:52:48.689Z,19.62
2018-02-06T22:55:14.936Z,18.45
2018-02-06T22:57:41.479Z,19.85
2018-02-06T23:00:07.781Z,19.05
2018-02-06T23:02:34.039Z,19.17
2018-02-06T23:05:00.270Z,19.40
2018-02-06T23:07:26.558Z,18.62
2018-02-06T23:09:52.764Z,20.75
2018-02-06T23:12:18.986Z,18.48
2018-02-06T23:14:45.296Z,20.52
2018-02-06T23:17:12.440Z,19.23
2018-02-06T23:19:40.949Z,19.20
2018-02-06T23:22:07.268Z,20.02
2018-02-06T23:24:33.585Z,18.92
2018-02-06T23:26:59.896Z,20.10
2018-02-06T23:29:26.860Z,20.45
2018-02-06T23:31:53.121Z,20.10
2018-02-06T23:34:19.824Z,21.95
2018-02-06T23:36:46.041Z,19.55
2018-02-06T23:39:12.268Z,19.33
2018-02-06T23:41:38.489Z,19.83
2018-02-06T23:44:04.757Z,19.27
2018-02-06T23:46:31.013Z,18.25
2018-02-06T23:48:57.280Z,19.67
2018-02-06T23:51:23.520Z,20.98
2018-02-06T23:53:50.516Z,19.85
2018-02-06T23:56:16.772Z,21.42
2018-02-06T23:58:43.049Z,21.55
